createdAt,value
2022-10-17T00:00:47.807Z,55.39
2022-10-17T00:11:00.662Z,55.65
2022-10-17T00:21:02.051Z,55.87
2022-10-17T00:31:04.447Z,55.27
2022-10-17T00:41:06.119Z,55.66
2022-10-17T00:51:07.607Z,55.22
2022-10-17T01:01:09.044Z,55.08
2022-10-17T01:11:22.532Z,55.45
2022-10-17T01:21:47.411Z,55.12
2022-10-17T01:31:59.231Z,55.14
2022-10-17T01:42:20.752Z,55.18
2022-10-17T01:52:24.627Z,55.51
2022-10-17T02:02:26.083Z,54.66
2022-10-17T02:12:33.376Z,55.41
2022-10-17T02:22:47.722Z,55.08
2022-10-17T02:33:05.564Z,55.16
2022-10-17T02:43:07.124Z,54.71
2022-10-17T02:53:10.892Z,55.02
2022-10-17T03:03:23.275Z,54.89
2022-10-17T03:13:25.207Z,55.44
2022-10-17T03:23:26.587Z,55.25
2022-10-17T03:33:28.033Z,55.50
2022-10-17T03:43:29.748Z,55.21
2022-10-17T03:53:31.131Z,55.52
2022-10-17T04:03:32.628Z,55.40
2022-10-17T04:13:34.318Z,55.23
2022-10-17T04:23:35.701Z,55.42
2022-10-17T04:33:37.284Z,55.38
2022-10-17T04:43:38.741Z,55.62
2022-10-17T04:53:40.456Z,55.38
2022-10-17T05:03:42.371Z,54.77
2022-10-17T05:13:43.809Z,55.23
2022-10-17T05:23:45.843Z,55.21
2022-10-17T05:33:47.253Z,54.91
2022-10-17T05:43:50.096Z,55.16
2022-10-17T05:53:51.550Z,55.39
2022-10-17T06:03:53.028Z,54.89
2022-10-17T06:13:54.519Z,55.44
2022-10-17T06:23:56.016Z,55.11
2022-10-17T06:33:57.386Z,54.97
2022-10-17T06:43:58.790Z,54.79
2022-10-17T06:54:00.185Z,54.72
2022-10-17T07:04:01.689Z,54.86
2022-10-17T07:14:03.127Z,53.85
2022-10-17T07:24:05.724Z,53.66
2022-10-17T07:34:07.114Z,53.09
2022-10-17T07:44:08.563Z,53.00
2022-10-17T07:54:10.090Z,51.29
2022-10-17T08:04:11.605Z,50.02
2022-10-17T08:14:13.482Z,49.01
2022-10-17T08:24:14.851Z,47.65
2022-10-17T08:34:16.225Z,47.51
2022-10-17T08:44:25.250Z,46.80
2022-10-17T08:54:46.166Z,46.21
2022-10-17T09:05:04.638Z,46.21
2022-10-17T09:15:37.246Z,46.68
2022-10-17T09:25:46.504Z,45.48
2022-10-17T09:35:47.986Z,46.33
2022-10-17T09:46:04.500Z,46.06
2022-10-17T09:56:11.619Z,47.12
2022-10-17T10:06:19.489Z,47.86
2022-10-17T10:16:30.507Z,47.88
2022-10-17T10:26:43.451Z,48.70
2022-10-17T10:36:58.338Z,48.56
2022-10-17T10:47:27.184Z,48.53
2022-10-17T10:57:29.741Z,48.50
2022-10-17T11:07:33.263Z,49.13
2022-10-17T11:17:52.653Z,48.91
2022-10-17T11:27:54.140Z,49.35
2022-10-17T11:38:03.239Z,49.80
2022-10-17T11:48:31.041Z,49.70
2022-10-17T11:58:46.385Z,49.89
2022-10-17T12:09:10.669Z,50.07
2022-10-17T12:19:20.225Z,50.21
2022-10-17T12:29:27.382Z,50.24
2022-10-17T12:39:28.752Z,50.84
2022-10-17T12:49:36.265Z,51.45
2022-10-17T12:59:37.640Z,51.55
2022-10-17T13:09:39.246Z,51.18
2022-10-17T13:19:42.617Z,51.74
2022-10-17T13:29:44.504Z,51.32
2022-10-17T13:40:11.356Z,51.77
2022-10-17T13:50:26.450Z,51.30
2022-10-17T14:00:29.752Z,52.57
2022-10-17T14:10:30.970Z,52.60
2022-10-17T14:21:08.220Z,52.20
2022-10-17T14:30:57.729Z,51.30
2022-10-17T14:51:32.460Z,52.19
2022-10-17T15:01:41.725Z,53.50
2022-10-17T15:11:43.097Z,53.12
2022-10-17T15:21:47.233Z,53.54
2022-10-17T15:31:48.872Z,53.38
2022-10-17T15:41:50.341Z,53.01
2022-10-17T15:51:55.221Z,53.68
2022-10-17T16:01:56.848Z,52.41
2022-10-17T16:11:58.320Z,53.67
2022-10-17T16:22:04.326Z,52.25
2022-10-17T16:32:06.103Z,52.00
2022-10-17T16:42:07.512Z,52.58
2022-10-17T16:52:09.066Z,53.59
2022-10-17T17:02:10.744Z,56.20
2022-10-17T17:12:12.230Z,57.26
2022-10-17T17:22:13.632Z,56.91
2022-10-17T17:32:15.138Z,57.44
2022-10-17T17:42:16.643Z,57.02
2022-10-17T17:52:18.128Z,58.22
2022-10-17T18:02:19.647Z,56.77
2022-10-17T18:12:21.010Z,56.95
2022-10-17T18:22:23.051Z,56.53
2022-10-17T18:32:24.421Z,56.83
2022-10-17T18:42:25.839Z,57.39
2022-10-17T18:52:27.339Z,57.38
2022-10-17T19:02:28.785Z,57.17
2022-10-17T19:12:30.159Z,57.30
2022-10-17T19:22:33.019Z,57.89
2022-10-17T19:32:35.825Z,57.95
2022-10-17T19:42:37.233Z,57.87
2022-10-17T19:52:38.614Z,57.77
2022-10-17T20:02:40.099Z,57.71
2022-10-17T20:12:41.468Z,57.63
2022-10-17T20:22:42.833Z,57.72
2022-10-17T20:32:44.307Z,58.13
2022-10-17T20:42:45.799Z,58.59
2022-10-17T20:52:47.530Z,58.54
2022-10-17T21:02:48.940Z,58.66
2022-10-17T21:12:54.243Z,58.26
2022-10-17T21:22:57.204Z,58.64
2022-10-17T21:32:58.976Z,58.85
2022-10-17T21:43:00.494Z,58.69
2022-10-17T21:53:01.857Z,58.91
2022-10-17T22:03:04.109Z,59.21
2022-10-17T22:13:05.613Z,59.16
2022-10-17T22:23:07.094Z,59.11
2022-10-17T22:33:08.500Z,59.11
2022-10-17T22:43:10.009Z,59.72
2022-10-17T22:53:12.209Z,59.54
2022-10-17T23:03:13.731Z,59.73
2022-10-17T23:13:15.163Z,59.58
2022-10-17T23:23:16.613Z,59.67
2022-10-17T23:33:17.978Z,59.41
2022-10-17T23:43:19.460Z,59.61
2022-10-17T23:53:21.340Z,59.40
